Tecumseh, Nebraska
Current Conditions -  °F | °C
As of 2:55 PM on Thursday 23 Oct 2014 (Local Time) from KAFK Reporting Station
Clear Clear  
Wind Chill: 69°   Ceiling: Unl
Heat Index: 69°   Visibility: 10mi
Dew Point: 52°   Wind: 6mph
Humidity: 55%   Direction: 310°NW
Pressure: 30.03"   Gusts: NA
Location:  40.37°N, 96.2°W
Report Text: KAFK 231955Z AUTO 31005KT 10SM CLR 21/11 A3003 RMK AO2 T02060112
Loading
Personal Weather Stations






























Interactive Weather Map
Tropical Storm Tracking
New forecast layout! Learn more

10-Day Weather Forecast

Advertisements
Track Severe Weather on mobile